Time,TemperatureF,DewpointF,PressureIn,WindDirection,WindDirectionDegrees,WindSpeedMPH,WindSpeedGustMPH,Humidity,HourlyPrecipIn,Conditions,Clouds,dailyrainin,SoftwareType,DateUTC
2013-10-14 00:04:00,70.0,65.0,30.01,NNE,30,0.0,0.0,84,0.00,,,0.00,,2013-10-14 04:04:00,
2013-10-14 00:14:00,70.0,65.0,30.01,NNE,30,0.0,0.0,84,0.00,,,0.00,,2013-10-14 04:14:00,
2013-10-14 00:24:00,68.0,63.0,30.01,NNE,30,0.0,0.0,85,0.00,,,0.00,,2013-10-14 04:24:00,
2013-10-14 00:44:00,68.0,63.0,30.01,NNE,30,0.0,0.0,85,0.00,,,0.00,,2013-10-14 04:44:00,
2013-10-14 00:54:00,67.0,63.0,30.00,NNE,30,0.0,0.0,86,0.00,,,0.00,,2013-10-14 04:54:00,
2013-10-14 01:02:00,66.0,62.0,30.00,NNE,30,0.0,0.0,86,0.00,,,0.00,,2013-10-14 05:02:00,
2013-10-14 01:23:00,66.0,62.0,30.00,NNE,30,0.0,0.0,86,0.00,,,0.00,,2013-10-14 05:23:00,
2013-10-14 01:34:00,66.0,62.0,30.00,NNE,30,0.0,0.0,86,0.00,,,0.00,,2013-10-14 05:34:00,
2013-10-14 01:52:00,66.0,62.0,30.00,NNE,30,0.0,0.0,86,0.00,,,0.00,,2013-10-14 05:52:00,
2013-10-14 02:22:00,65.0,61.0,29.99,NNE,30,0.0,0.0,87,0.00,,,0.00,,2013-10-14 06:22:00,
2013-10-14 02:52:00,65.0,61.0,29.99,NNE,30,0.0,0.0,87,0.00,,,0.00,,2013-10-14 06:52:00,
2013-10-14 03:22:00,65.0,61.0,29.98,NNE,30,0.0,0.0,86,0.00,,,0.00,,2013-10-14 07:22:00,
2013-10-14 03:32:00,65.0,61.0,29.98,NNE,30,0.0,0.0,86,0.00,,,0.00,,2013-10-14 07:32:00,
2013-10-14 03:42:00,65.0,61.0,29.98,NNE,30,0.0,0.0,86,0.00,,,0.00,,2013-10-14 07:42:00,
2013-10-14 03:52:00,65.0,61.0,29.97,NNE,30,0.0,0.0,86,0.00,,,0.00,,2013-10-14 07:52:00,
2013-10-14 04:22:00,65.0,61.0,29.96,NNE,30,0.0,0.0,86,0.00,,,0.00,,2013-10-14 08:22:00,
2013-10-14 04:32:00,65.0,61.0,29.96,NNE,30,0.0,0.0,86,0.00,,,0.00,,2013-10-14 08:32:00,
2013-10-14 04:52:00,64.0,60.0,29.96,NNE,30,0.0,0.0,86,0.00,,,0.00,,2013-10-14 08:52:00,
2013-10-14 05:22:00,64.0,60.0,29.96,NNE,30,0.0,0.0,86,0.00,,,0.00,,2013-10-14 09:22:00,
2013-10-14 05:43:00,64.0,60.0,29.96,NNE,30,0.0,0.0,86,0.00,,,0.00,,2013-10-14 09:43:00,
2013-10-14 05:53:00,64.0,60.0,29.96,NNE,30,0.0,0.0,86,0.00,,,0.00,,2013-10-14 09:53:00,
2013-10-14 06:03:00,64.0,60.0,29.96,NNE,30,0.0,0.0,86,0.00,,,0.00,,2013-10-14 10:03:00,
2013-10-14 06:23:00,64.0,60.0,29.96,NNE,30,0.0,0.0,86,0.00,,,0.00,,2013-10-14 10:23:00,
2013-10-14 06:53:00,64.0,60.0,29.96,NNE,30,0.0,0.0,86,0.00,,,0.00,,2013-10-14 10:53:00,
2013-10-14 07:22:00,65.0,61.0,29.96,NNE,30,0.0,0.0,86,0.00,,,0.00,,2013-10-14 11:22:00,
2013-10-14 07:42:00,66.0,62.0,29.96,NNE,30,0.0,0.0,86,0.00,,,0.00,,2013-10-14 11:42:00,
2013-10-14 07:52:00,66.0,62.0,29.96,NNE,30,0.0,0.0,86,0.00,,,0.00,,2013-10-14 11:52:00,
2013-10-14 08:22:00,66.0,61.0,29.97,NNE,30,0.0,0.0,85,0.00,,,0.00,,2013-10-14 12:22:00,
2013-10-14 08:32:00,66.0,61.0,29.97,NNE,30,0.0,0.0,85,0.00,,,0.00,,2013-10-14 12:32:00,
2013-10-14 08:42:00,66.0,61.0,29.97,NNE,30,0.0,0.0,85,0.00,,,0.00,,2013-10-14 12:42:00,
2013-10-14 08:52:00,68.0,63.0,29.98,NE,46,0.0,1.0,85,0.00,,,0.00,,2013-10-14 12:52:00,
2013-10-14 09:11:00,69.0,64.0,29.98,NNW,332,0.0,1.0,85,0.00,,,0.00,,2013-10-14 13:11:00,
2013-10-14 09:22:00,70.0,66.0,29.98,NNW,331,0.0,1.0,86,0.00,,,0.00,,2013-10-14 13:22:00,
2013-10-14 09:32:00,70.0,66.0,29.98,NNW,331,0.0,1.0,86,0.00,,,0.00,,2013-10-14 13:32:00,
2013-10-14 09:42:00,70.0,66.0,29.98,NNW,331,0.0,1.0,86,0.00,,,0.00,,2013-10-14 13:42:00,
2013-10-14 09:52:00,75.0,69.0,29.99,ENE,59,3.0,7.0,81,0.00,,,0.00,,2013-10-14 13:52:00,
2013-10-14 10:11:00,76.0,69.0,30.00,SE,124,0.0,7.0,80,0.00,,,0.00,,2013-10-14 14:11:00,
2013-10-14 10:22:00,77.0,69.0,30.00,East,89,1.0,4.0,77,0.00,,,0.00,,2013-10-14 14:22:00,
2013-10-14 10:42:00,77.0,69.0,30.00,East,89,1.0,4.0,77,0.00,,,0.00,,2013-10-14 14:42:00,
2013-10-14 10:52:00,80.0,69.0,30.00,NNE,31,0.0,3.0,70,0.00,,,0.00,,2013-10-14 14:52:00,
2013-10-14 11:22:00,82.0,69.0,30.00,East,85,3.0,6.0,66,0.00,,,0.00,,2013-10-14 15:22:00,
2013-10-14 11:54:00,83.0,70.0,29.99,North,11,1.0,6.0,65,0.00,,,0.00,,2013-10-14 15:54:00,
2013-10-14 12:03:00,83.0,70.0,29.99,North,11,1.0,6.0,65,0.00,,,0.00,,2013-10-14 16:03:00,
2013-10-14 12:23:00,84.0,70.0,29.99,NE,36,0.0,5.0,64,0.00,,,0.00,,2013-10-14 16:23:00,
2013-10-14 12:53:00,84.0,70.0,29.98,ESE,121,0.0,3.0,63,0.00,,,0.00,,2013-10-14 16:53:00,
2013-10-14 13:02:00,84.0,70.0,29.98,ESE,121,0.0,3.0,63,0.00,,,0.00,,2013-10-14 17:02:00,
2013-10-14 13:22:00,84.0,69.0,29.97,ENE,74,0.0,3.0,61,0.00,,,0.00,,2013-10-14 17:22:00,
2013-10-14 13:52:00,85.0,70.0,29.96,ESE,122,0.0,4.0,60,0.00,,,0.00,,2013-10-14 17:52:00,
2013-10-14 14:22:00,88.0,70.0,29.93,SSE,167,2.0,2.0,56,0.00,,,0.00,,2013-10-14 18:22:00,
2013-10-14 14:52:00,86.0,68.0,29.93,ENE,67,0.0,4.0,56,0.00,,,0.00,,2013-10-14 18:52:00,
2013-10-14 15:22:00,87.0,68.0,29.91,ENE,60,0.0,6.0,54,0.00,,,0.00,,2013-10-14 19:22:00,
2013-10-14 15:52:00,87.0,65.0,29.90,NNE,25,0.0,4.0,49,0.00,,,0.00,,2013-10-14 19:52:00,
2013-10-14 16:22:00,88.0,67.0,29.89,ENE,61,0.0,4.0,50,0.00,,,0.00,,2013-10-14 20:22:00,
2013-10-14 16:32:00,88.0,67.0,29.89,ENE,61,0.0,4.0,50,0.00,,,0.00,,2013-10-14 20:32:00,
2013-10-14 16:43:00,88.0,67.0,29.89,ENE,61,0.0,4.0,50,0.00,,,0.00,,2013-10-14 20:43:00,
2013-10-14 16:52:00,87.0,66.0,29.89,NW,311,0.0,3.0,50,0.00,,,0.00,,2013-10-14 20:52:00,
2013-10-14 17:02:00,87.0,66.0,29.89,NW,311,0.0,3.0,50,0.00,,,0.00,,2013-10-14 21:02:00,
2013-10-14 17:22:00,88.0,67.0,29.89,SSE,163,0.0,3.0,50,0.00,,,0.00,,2013-10-14 21:22:00,
2013-10-14 17:52:00,86.0,67.0,29.89,ENE,76,1.0,4.0,53,0.00,,,0.00,,2013-10-14 21:52:00,
2013-10-14 17:54:00,86.0,67.0,29.89,ENE,67,0.0,1.0,53,0.00,,,0.00,,2013-10-14 21:54:00,
2013-10-14 18:24:00,86.0,67.0,29.89,ENE,76,1.0,4.0,53,0.00,,,0.00,,2013-10-14 22:24:00,
2013-10-14 18:33:00,86.0,67.0,29.89,ENE,76,1.0,4.0,53,0.00,,,0.00,,2013-10-14 22:33:00,
2013-10-14 19:22:00,81.0,69.0,29.90,ENE,71,0.0,0.0,68,0.00,,,0.00,,2013-10-14 23:22:00,
2013-10-14 19:34:00,81.0,69.0,29.90,ENE,71,0.0,0.0,68,0.00,,,0.00,,2013-10-14 23:34:00,
2013-10-14 19:53:00,78.0,69.0,29.91,ENE,71,0.0,0.0,74,0.00,,,0.00,,2013-10-14 23:53:00,
2013-10-14 20:02:00,78.0,69.0,29.91,ENE,71,0.0,0.0,74,0.00,,,0.00,,2013-10-15 00:02:00,
2013-10-14 20:12:00,78.0,69.0,29.91,ENE,71,0.0,0.0,74,0.00,,,0.00,,2013-10-15 00:12:00,
2013-10-14 20:22:00,75.0,68.0,29.92,ENE,71,0.0,0.0,79,0.00,,,0.00,,2013-10-15 00:22:00,
2013-10-14 20:52:00,72.0,66.0,29.93,ENE,71,0.0,0.0,82,0.00,,,0.00,,2013-10-15 00:52:00,
2013-10-14 21:22:00,71.0,66.0,29.93,ENE,71,0.0,0.0,84,0.00,,,0.00,,2013-10-15 01:22:00,
2013-10-14 21:52:00,70.0,65.0,29.94,ENE,71,0.0,0.0,84,0.00,,,0.00,,2013-10-15 01:52:00,
2013-10-14 22:22:00,70.0,65.0,29.95,ENE,71,0.0,0.0,85,0.00,,,0.00,,2013-10-15 02:22:00,
2013-10-14 22:32:00,70.0,65.0,29.95,ENE,71,0.0,0.0,85,0.00,,,0.00,,2013-10-15 02:32:00,
2013-10-14 22:52:00,70.0,65.0,29.96,ENE,71,0.0,0.0,85,0.00,,,0.00,,2013-10-15 02:52:00,
2013-10-14 23:23:00,70.0,65.0,29.96,ENE,71,0.0,0.0,85,0.00,,,0.00,,2013-10-15 03:23:00,
2013-10-14 23:32:00,70.0,66.0,29.96,ENE,71,0.0,0.0,86,0.00,,,0.00,,2013-10-15 03:32:00,
2013-10-14 23:34:00,70.0,65.0,29.96,ENE,71,0.0,0.0,85,0.00,,,0.00,,2013-10-15 03:34:00,
2013-10-14 23:44:00,70.0,65.0,29.96,ENE,71,0.0,0.0,85,0.00,,,0.00,,2013-10-15 03:44:00,
2013-10-14 23:55:00,70.0,66.0,29.96,ENE,71,0.0,0.0,86,0.00,,,0.00,,2013-10-15 03:55:00,